createdAt,value
2016-09-28T00:00:59.158Z,0
2016-09-28T00:01:59.163Z,0
2016-09-28T00:02:59.198Z,0
2016-09-28T00:03:59.219Z,0
2016-09-28T00:04:59.246Z,0
2016-09-28T00:06:14.181Z,0
2016-09-28T00:06:59.294Z,0
2016-09-28T00:07:59.305Z,0
2016-09-28T00:08:59.330Z,0
2016-09-28T00:09:59.347Z,0
2016-09-28T00:11:14.308Z,0
2016-09-28T00:11:59.402Z,0
2016-09-28T00:12:59.422Z,0
2016-09-28T00:14:14.368Z,0
2016-09-28T00:15:14.394Z,0
2016-09-28T00:16:14.415Z,0
2016-09-28T00:16:59.615Z,0
2016-09-28T00:17:59.536Z,0
2016-09-28T00:18:59.560Z,0
2016-09-28T00:19:59.578Z,0
2016-09-28T00:20:59.598Z,0
2016-09-28T00:21:59.635Z,0
2016-09-28T00:22:59.661Z,0
2016-09-28T00:23:59.672Z,0
2016-09-28T00:24:59.699Z,0
2016-09-28T00:25:59.736Z,0
2016-09-28T00:27:29.593Z,0
2016-09-28T00:27:59.777Z,0
2016-09-28T00:28:59.801Z,0
2016-09-28T00:29:59.815Z,0
2016-09-28T00:30:59.844Z,0
2016-09-28T00:31:59.868Z,0
2016-09-28T00:32:59.887Z,0
2016-09-28T00:33:59.901Z,0
2016-09-28T00:34:59.925Z,0
2016-09-28T00:35:59.948Z,0
2016-09-28T00:36:59.974Z,0
2016-09-28T00:37:59.991Z,0
2016-09-28T00:40:00.084Z,0
2016-09-28T00:41:00.070Z,0
2016-09-28T00:42:29.934Z,0
2016-09-28T00:43:00.104Z,0
2016-09-28T00:44:00.127Z,0
2016-09-28T00:45:15.072Z,0
2016-09-28T00:46:30.023Z,0
2016-09-28T00:47:00.198Z,0
2016-09-28T00:48:00.211Z,0
2016-09-28T00:49:00.250Z,0
2016-09-28T00:50:15.192Z,0
2016-09-28T00:51:00.286Z,0
2016-09-28T00:52:00.313Z,0
2016-09-28T00:53:00.338Z,0
2016-09-28T00:54:00.354Z,0
2016-09-28T00:55:00.444Z,0
2016-09-28T00:56:00.397Z,0
2016-09-28T00:57:00.421Z,0
2016-09-28T00:58:00.449Z,0
2016-09-28T00:59:00.470Z,0
2016-09-28T01:00:00.489Z,0
2016-09-28T01:01:15.446Z,0
2016-09-28T01:02:15.459Z,0
2016-09-28T01:03:00.564Z,0
2016-09-28T01:04:00.583Z,0
2016-09-28T01:05:00.602Z,0
2016-09-28T01:06:00.642Z,0
2016-09-28T01:08:00.679Z,0
2016-09-28T01:09:00.697Z,0
2016-09-28T01:10:00.719Z,0
2016-09-28T01:11:00.737Z,0
2016-09-28T01:12:00.756Z,0
2016-09-28T01:13:00.801Z,0
2016-09-28T01:14:00.805Z,0
2016-09-28T01:15:15.749Z,0
2016-09-28T01:16:00.858Z,0
2016-09-28T01:17:00.879Z,0
2016-09-28T01:18:15.925Z,0
2016-09-28T01:19:15.849Z,0
2016-09-28T01:20:00.953Z,0
2016-09-28T01:21:00.982Z,0
2016-09-28T01:22:15.915Z,0
2016-09-28T01:23:01.008Z,0
2016-09-28T01:24:01.089Z,0
2016-09-28T01:25:01.057Z,0
2016-09-28T01:26:01.089Z,0
2016-09-28T01:27:01.109Z,0
2016-09-28T01:28:01.131Z,0
2016-09-28T01:29:01.157Z,0
2016-09-28T01:30:01.169Z,0
2016-09-28T01:31:01.196Z,0
2016-09-28T01:32:01.222Z,0
2016-09-28T01:33:01.548Z,0
2016-09-28T01:34:31.108Z,0
2016-09-28T01:35:01.290Z,0
2016-09-28T01:36:01.299Z,0
2016-09-28T01:37:01.326Z,0
2016-09-28T01:38:01.652Z,0
2016-09-28T01:39:16.544Z,0
2016-09-28T01:40:01.407Z,0
2016-09-28T01:41:01.411Z,0
2016-09-28T01:42:01.452Z,0
2016-09-28T01:44:16.405Z,0
2016-09-28T01:45:01.517Z,0
2016-09-28T01:46:01.532Z,0
2016-09-28T01:47:01.560Z,0
2016-09-28T01:48:01.576Z,0
2016-09-28T01:49:16.531Z,0
2016-09-28T01:50:01.976Z,0
2016-09-28T01:51:01.701Z,0
2016-09-28T01:52:01.665Z,0
2016-09-28T01:53:01.757Z,0
2016-09-28T01:54:01.722Z,0
2016-09-28T01:55:16.656Z,0
2016-09-28T01:56:01.762Z,0
2016-09-28T01:57:16.699Z,0
2016-09-28T01:58:01.808Z,0
2016-09-28T01:59:01.821Z,0
2016-09-28T02:00:01.908Z,0
2016-09-28T02:01:16.793Z,0
2016-09-28T02:02:01.888Z,0
2016-09-28T02:03:16.846Z,0
2016-09-28T02:04:01.943Z,0
2016-09-28T02:05:01.962Z,0
2016-09-28T02:06:16.911Z,0
2016-09-28T02:07:02.014Z,0
2016-09-28T02:08:02.127Z,0
2016-09-28T02:09:02.063Z,0
2016-09-28T02:10:02.067Z,0
2016-09-28T02:11:02.104Z,0
2016-09-28T02:12:02.134Z,0
2016-09-28T02:13:02.135Z,0
2016-09-28T02:14:02.166Z,0
2016-09-28T02:15:02.192Z,0
2016-09-28T02:16:02.210Z,0
2016-09-28T02:17:02.233Z,0
2016-09-28T02:18:17.224Z,0
2016-09-28T02:19:02.278Z,0
2016-09-28T02:20:17.264Z,0
2016-09-28T02:21:17.239Z,0
2016-09-28T02:22:02.344Z,0
2016-09-28T02:23:02.361Z,0
2016-09-28T02:24:02.393Z,0
2016-09-28T02:25:02.410Z,0
2016-09-28T02:26:02.437Z,0
2016-09-28T02:27:02.454Z,0
2016-09-28T02:28:17.404Z,0
2016-09-28T02:29:02.499Z,0
2016-09-28T02:30:17.458Z,0
2016-09-28T02:32:02.576Z,0
2016-09-28T02:33:02.594Z,0
2016-09-28T02:34:02.613Z,0
2016-09-28T02:35:02.636Z,0
2016-09-28T02:36:02.648Z,0
2016-09-28T02:37:17.601Z,0
2016-09-28T02:38:02.702Z,0
2016-09-28T02:39:02.725Z,0
2016-09-28T02:40:02.746Z,0
2016-09-28T02:41:02.812Z,0
2016-09-28T02:42:02.799Z,0
2016-09-28T02:43:02.814Z,0
2016-09-28T02:44:17.755Z,0
2016-09-28T02:45:02.857Z,0
2016-09-28T02:46:02.881Z,0
2016-09-28T02:47:03.053Z,0
2016-09-28T02:48:17.847Z,0
2016-09-28T02:49:17.874Z,0
2016-09-28T02:50:02.976Z,0
2016-09-28T02:51:02.991Z,0
2016-09-28T02:52:03.071Z,0
2016-09-28T02:53:17.956Z,0
2016-09-28T02:54:03.059Z,0
2016-09-28T02:55:18.001Z,0
2016-09-28T02:56:03.105Z,0
2016-09-28T02:57:03.135Z,0
2016-09-28T02:58:03.150Z,0
2016-09-28T02:59:03.175Z,0
2016-09-28T03:00:03.196Z,0
2016-09-28T03:01:03.209Z,0
2016-09-28T03:02:03.252Z,0
2016-09-28T03:03:18.187Z,0
2016-09-28T03:04:03.285Z,0
2016-09-28T03:05:03.301Z,0
2016-09-28T03:06:18.246Z,0
2016-09-28T03:07:18.272Z,0
2016-09-28T03:08:03.375Z,0
2016-09-28T03:10:03.414Z,0
2016-09-28T03:11:03.438Z,0
2016-09-28T03:12:03.457Z,0
2016-09-28T03:13:18.406Z,0
2016-09-28T03:14:03.502Z,0
2016-09-28T03:15:03.524Z,0
2016-09-28T03:16:03.849Z,0
2016-09-28T03:17:03.880Z,0
2016-09-28T03:18:03.610Z,0
2016-09-28T03:19:03.627Z,0
2016-09-28T03:20:03.644Z,0
2016-09-28T03:21:18.584Z,0
2016-09-28T03:22:18.606Z,0
2016-09-28T03:23:03.711Z,0
2016-09-28T03:24:18.904Z,0
2016-09-28T03:25:03.765Z,0
2016-09-28T03:27:03.803Z,0
2016-09-28T03:28:03.832Z,0
2016-09-28T03:29:03.843Z,0
2016-09-28T03:30:03.869Z,0
2016-09-28T03:31:03.880Z,0
2016-09-28T03:32:03.919Z,0
2016-09-28T03:33:03.930Z,0
2016-09-28T03:34:03.950Z,0
2016-09-28T03:35:03.975Z,0
2016-09-28T03:36:04.011Z,0
2016-09-28T03:37:04.021Z,0
2016-09-28T03:38:04.346Z,0
2016-09-28T03:39:04.076Z,0
2016-09-28T03:40:04.097Z,0
2016-09-28T03:41:04.111Z,0
2016-09-28T03:42:04.132Z,0
2016-09-28T03:43:04.155Z,0
2016-09-28T03:44:04.226Z,0
2016-09-28T03:45:04.201Z,0
2016-09-28T03:46:04.776Z,0
2016-09-28T03:47:04.242Z,0
2016-09-28T03:48:04.265Z,0
2016-09-28T03:50:04.306Z,0
2016-09-28T03:51:04.340Z,0
2016-09-28T03:52:04.344Z,0
2016-09-28T03:54:19.327Z,0
2016-09-28T03:55:04.427Z,0
2016-09-28T03:56:19.379Z,0
2016-09-28T03:57:04.465Z,0
2016-09-28T03:58:04.588Z,0
2016-09-28T03:59:19.436Z,0
2016-09-28T04:00:04.533Z,0
2016-09-28T04:01:04.553Z,0
2016-09-28T04:02:04.573Z,0
2016-09-28T04:03:04.597Z,0
2016-09-28T04:04:04.640Z,0
2016-09-28T04:06:04.670Z,0
2016-09-28T04:07:04.702Z,0
2016-09-28T04:08:19.627Z,0
2016-09-28T04:09:04.729Z,0
2016-09-28T04:10:04.749Z,0
2016-09-28T04:11:04.781Z,0
2016-09-28T04:12:19.711Z,0
2016-09-28T04:13:04.816Z,0
2016-09-28T04:14:04.840Z,0
2016-09-28T04:15:04.880Z,0
2016-09-28T04:16:04.885Z,0
2016-09-28T04:17:04.912Z,0
2016-09-28T04:18:19.856Z,0
2016-09-28T04:19:04.964Z,0
2016-09-28T04:20:04.979Z,0
2016-09-28T04:21:19.928Z,0
2016-09-28T04:22:05.025Z,0
2016-09-28T04:23:05.047Z,0
2016-09-28T04:24:20.298Z,0
2016-09-28T04:25:20.009Z,0
2016-09-28T04:26:05.361Z,0
2016-09-28T04:27:05.137Z,0
2016-09-28T04:28:20.078Z,0
2016-09-28T04:29:05.234Z,0
2016-09-28T04:30:05.197Z,0
2016-09-28T04:31:05.274Z,0
2016-09-28T04:32:05.249Z,0
2016-09-28T04:33:05.273Z,0
2016-09-28T04:34:05.294Z,0
2016-09-28T04:35:05.308Z,0
2016-09-28T04:36:05.342Z,0
2016-09-28T04:37:20.284Z,0
2016-09-28T04:38:05.439Z,0
2016-09-28T04:39:05.406Z,0
2016-09-28T04:40:05.421Z,0
2016-09-28T04:41:05.441Z,0
2016-09-28T04:42:05.478Z,0
2016-09-28T04:44:20.741Z,0
2016-09-28T04:45:05.589Z,0
2016-09-28T04:46:05.860Z,0
2016-09-28T04:47:05.581Z,0
2016-09-28T04:48:05.599Z,0
2016-09-28T04:49:05.963Z,0
2016-09-28T04:50:05.668Z,0
2016-09-28T04:51:05.677Z,0
2016-09-28T04:52:20.917Z,0
2016-09-28T04:53:05.712Z,0
2016-09-28T04:54:05.737Z,0
2016-09-28T04:55:05.766Z,0
2016-09-28T04:57:05.805Z,0
2016-09-28T04:58:05.900Z,5
2016-09-28T04:59:35.695Z,5
2016-09-28T05:00:05.871Z,5
2016-09-28T05:01:20.810Z,5
2016-09-28T05:02:05.916Z,5
2016-09-28T05:03:05.937Z,5
2016-09-28T05:04:05.957Z,5
2016-09-28T05:05:05.984Z,5
2016-09-28T05:06:06.008Z,10
2016-09-28T05:07:06.030Z,10
2016-09-28T05:09:06.120Z,10
2016-09-28T05:10:06.095Z,10
2016-09-28T05:11:21.042Z,10
2016-09-28T05:12:21.364Z,10
2016-09-28T05:13:21.083Z,10
2016-09-28T05:14:21.108Z,10
2016-09-28T05:15:06.216Z,10
2016-09-28T05:16:21.147Z,10
2016-09-28T05:17:06.565Z,15
2016-09-28T05:18:21.199Z,15
2016-09-28T05:19:06.295Z,15
2016-09-28T05:20:06.314Z,15
2016-09-28T05:21:06.356Z,15
2016-09-28T05:22:06.365Z,15
2016-09-28T05:24:06.660Z,15
2016-09-28T05:25:06.431Z,15
2016-09-28T05:26:06.465Z,10
2016-09-28T05:27:06.506Z,10
2016-09-28T05:28:06.806Z,10
2016-09-28T05:29:06.553Z,10
2016-09-28T05:30:06.551Z,10
2016-09-28T05:31:21.496Z,15
2016-09-28T05:32:06.585Z,15
2016-09-28T05:33:06.605Z,20
2016-09-28T05:34:06.635Z,20
2016-09-28T05:35:06.658Z,20
2016-09-28T05:36:06.685Z,15
2016-09-28T05:37:06.711Z,15
2016-09-28T05:38:06.727Z,20
2016-09-28T05:39:06.745Z,20
2016-09-28T05:40:06.762Z,25
2016-09-28T05:41:06.799Z,25
2016-09-28T05:42:21.759Z,25
2016-09-28T05:43:21.767Z,25
2016-09-28T05:44:21.785Z,25
2016-09-28T05:45:06.885Z,25
2016-09-28T05:46:06.906Z,30
2016-09-28T05:47:21.851Z,35
2016-09-28T05:48:06.952Z,35
2016-09-28T05:49:06.969Z,35
2016-09-28T05:50:07.000Z,35
2016-09-28T05:51:07.023Z,35
2016-09-28T05:52:07.055Z,35
2016-09-28T05:53:07.072Z,35
2016-09-28T05:54:07.088Z,35
2016-09-28T05:55:07.416Z,35
2016-09-28T05:56:22.054Z,35
2016-09-28T05:57:07.167Z,35
2016-09-28T05:58:07.180Z,35
2016-09-28T05:59:07.209Z,35
2016-09-28T06:00:07.537Z,100
2016-09-28T06:01:07.259Z,55
2016-09-28T06:02:07.275Z,40
2016-09-28T06:03:22.216Z,35
2016-09-28T06:04:07.326Z,35
2016-09-28T06:05:07.345Z,30
2016-09-28T06:06:22.290Z,30
2016-09-28T06:07:07.385Z,25
2016-09-28T06:08:07.421Z,25
2016-09-28T06:09:22.650Z,25
2016-09-28T06:10:07.461Z,25
2016-09-28T06:11:07.481Z,25
2016-09-28T06:12:07.498Z,30
2016-09-28T06:13:07.727Z,30
2016-09-28T06:14:07.548Z,30
2016-09-28T06:15:07.570Z,35
2016-09-28T06:16:07.601Z,35
2016-09-28T06:17:07.623Z,35
2016-09-28T06:18:07.638Z,35
2016-09-28T06:19:22.595Z,35
2016-09-28T06:20:07.684Z,35
2016-09-28T06:21:07.702Z,35
2016-09-28T06:23:07.797Z,35
2016-09-28T06:24:07.798Z,35
2016-09-28T06:25:07.807Z,35
2016-09-28T06:26:07.827Z,40
2016-09-28T06:27:22.787Z,40
2016-09-28T06:28:07.873Z,40
2016-09-28T06:29:07.894Z,40
2016-09-28T06:30:07.920Z,40
2016-09-28T06:31:37.794Z,40
2016-09-28T06:32:07.983Z,40
2016-09-28T06:33:22.923Z,40
2016-09-28T06:34:37.861Z,40
2016-09-28T06:35:22.968Z,40
2016-09-28T06:36:08.065Z,40
2016-09-28T06:37:08.088Z,40
2016-09-28T06:38:08.114Z,40
2016-09-28T06:39:08.137Z,40
2016-09-28T06:40:08.162Z,40
2016-09-28T06:41:08.176Z,40
2016-09-28T06:42:08.210Z,40
2016-09-28T06:43:08.239Z,40
2016-09-28T06:44:08.259Z,40
2016-09-28T06:45:08.287Z,40
2016-09-28T06:46:08.303Z,40
2016-09-28T06:47:08.323Z,40
2016-09-28T06:48:08.343Z,40
2016-09-28T06:49:08.371Z,40
2016-09-28T06:50:08.398Z,40
2016-09-28T06:51:23.337Z,40
2016-09-28T06:52:08.442Z,40
2016-09-28T06:53:08.459Z,40
2016-09-28T06:54:08.488Z,40
2016-09-28T06:55:08.499Z,40
2016-09-28T06:56:08.543Z,40
2016-09-28T06:57:08.558Z,45
2016-09-28T06:58:08.583Z,45
2016-09-28T06:59:23.529Z,45
2016-09-28T07:00:23.565Z,45
2016-09-28T07:01:08.655Z,45
2016-09-28T07:02:08.673Z,45
2016-09-28T07:03:23.925Z,45
2016-09-28T07:04:08.722Z,45
2016-09-28T07:05:08.749Z,45
2016-09-28T07:06:38.613Z,50
2016-09-28T07:07:08.794Z,50
2016-09-28T07:08:09.130Z,50
2016-09-28T07:09:08.845Z,50
2016-09-28T07:10:08.860Z,55
2016-09-28T07:11:23.809Z,55
2016-09-28T07:14:08.960Z,55
2016-09-28T07:15:08.990Z,55
2016-09-28T07:16:09.007Z,55
2016-09-28T07:17:09.043Z,60
2016-09-28T07:18:09.053Z,60
2016-09-28T07:19:09.079Z,60
2016-09-28T07:20:09.097Z,65
2016-09-28T07:21:09.120Z,65
2016-09-28T07:22:24.081Z,65
2016-09-28T07:23:09.493Z,65
2016-09-28T07:24:09.205Z,70
2016-09-28T07:25:09.227Z,70
2016-09-28T07:26:09.247Z,70
2016-09-28T07:28:09.298Z,70
2016-09-28T07:29:09.319Z,75
2016-09-28T07:30:09.341Z,75
2016-09-28T07:31:09.361Z,75
2016-09-28T07:32:24.308Z,75
2016-09-28T07:33:09.408Z,75
2016-09-28T07:34:24.364Z,70
2016-09-28T07:35:24.375Z,75
2016-09-28T07:36:09.582Z,75
2016-09-28T07:37:09.511Z,80
2016-09-28T07:38:24.752Z,85
2016-09-28T07:39:24.478Z,90
2016-09-28T07:40:09.581Z,90
2016-09-28T07:41:09.603Z,95
2016-09-28T07:42:09.637Z,100
2016-09-28T07:43:09.643Z,100
2016-09-28T07:44:09.674Z,105
2016-09-28T07:45:09.717Z,105
2016-09-28T07:46:09.723Z,110
2016-09-28T07:47:09.747Z,115
2016-09-28T07:48:09.775Z,115
2016-09-28T07:49:10.050Z,120
2016-09-28T07:50:24.747Z,130
2016-09-28T07:51:39.696Z,135
2016-09-28T07:52:09.880Z,140
2016-09-28T07:53:09.918Z,150
2016-09-28T07:54:24.842Z,155
2016-09-28T07:55:10.249Z,155
2016-09-28T07:56:09.990Z,160
2016-09-28T07:57:09.993Z,165
2016-09-28T07:58:10.025Z,165
2016-09-28T07:59:10.059Z,165
2016-09-28T08:00:24.993Z,155
2016-09-28T08:01:10.395Z,160
2016-09-28T08:02:10.119Z,165
2016-09-28T08:03:10.143Z,170
2016-09-28T08:04:10.168Z,175
2016-09-28T08:05:10.199Z,175
2016-09-28T08:06:25.143Z,165
2016-09-28T08:07:10.246Z,155
2016-09-28T08:08:10.283Z,150
2016-09-28T08:09:25.216Z,160
2016-09-28T08:10:10.320Z,165
2016-09-28T08:11:10.343Z,175
2016-09-28T08:12:10.366Z,185
2016-09-28T08:13:10.394Z,205
2016-09-28T08:14:10.436Z,205
2016-09-28T08:15:10.446Z,210
2016-09-28T08:16:10.475Z,200
2016-09-28T08:17:10.503Z,195
2016-09-28T08:18:10.518Z,195
2016-09-28T08:19:10.540Z,200
2016-09-28T08:20:10.575Z,205
2016-09-28T08:21:25.520Z,185
2016-09-28T08:22:10.627Z,180
2016-09-28T08:23:10.668Z,175
2016-09-28T08:24:10.678Z,175
2016-09-28T08:25:10.702Z,165
2016-09-28T08:26:40.569Z,145
2016-09-28T08:27:10.751Z,140
2016-09-28T08:28:10.775Z,135
2016-09-28T08:29:10.803Z,135
2016-09-28T08:30:10.828Z,135
2016-09-28T08:31:10.856Z,125
2016-09-28T08:32:10.876Z,125
2016-09-28T08:34:25.858Z,120
2016-09-28T08:35:11.254Z,120
2016-09-28T08:36:11.231Z,120
2016-09-28T08:37:11.002Z,115
2016-09-28T08:38:11.045Z,115
2016-09-28T08:39:11.070Z,110
2016-09-28T08:40:11.081Z,100
2016-09-28T08:41:26.025Z,95
2016-09-28T08:42:11.135Z,95
2016-09-28T08:43:11.162Z,95
2016-09-28T08:44:11.184Z,90
2016-09-28T08:45:11.516Z,95
2016-09-28T08:46:11.229Z,100
2016-09-28T08:47:11.255Z,110
2016-09-28T08:48:11.291Z,120
2016-09-28T08:49:11.360Z,125
2016-09-28T08:50:11.358Z,130
2016-09-28T08:51:11.363Z,135
2016-09-28T08:52:26.308Z,145
2016-09-28T08:53:41.264Z,160
2016-09-28T08:54:11.442Z,150
2016-09-28T08:55:11.468Z,150
2016-09-28T08:56:11.490Z,150
2016-09-28T08:57:26.441Z,155
2016-09-28T08:58:11.543Z,155
2016-09-28T08:59:11.564Z,155
2016-09-28T09:00:12.003Z,160
2016-09-28T09:01:11.625Z,165
2016-09-28T09:02:11.649Z,165
2016-09-28T09:03:11.674Z,165
2016-09-28T09:04:11.697Z,155
2016-09-28T09:05:26.653Z,145
2016-09-28T09:06:26.678Z,145
2016-09-28T09:07:11.768Z,155
2016-09-28T09:09:11.825Z,145
2016-09-28T09:10:11.862Z,140
2016-09-28T09:11:11.886Z,140
2016-09-28T09:12:11.905Z,130
2016-09-28T09:13:41.774Z,130
2016-09-28T09:14:11.959Z,135
2016-09-28T09:15:11.986Z,140
2016-09-28T09:16:12.001Z,145
2016-09-28T09:17:12.035Z,145
2016-09-28T09:18:12.056Z,140
2016-09-28T09:19:12.085Z,130
2016-09-28T09:20:12.403Z,125
2016-09-28T09:21:27.074Z,140
2016-09-28T09:23:12.211Z,135
2016-09-28T09:24:12.219Z,135
2016-09-28T09:25:12.241Z,130
2016-09-28T09:26:12.267Z,115
2016-09-28T09:27:12.289Z,110
2016-09-28T09:28:12.317Z,105
2016-09-28T09:29:27.272Z,100
2016-09-28T09:30:12.376Z,90
2016-09-28T09:31:12.402Z,90
2016-09-28T09:32:12.422Z,100
2016-09-28T09:33:12.469Z,105
2016-09-28T09:34:12.477Z,115
2016-09-28T09:35:12.499Z,120
2016-09-28T09:36:12.524Z,130
2016-09-28T09:37:27.497Z,135
2016-09-28T09:38:27.509Z,130
2016-09-28T09:39:12.605Z,125
2016-09-28T09:40:12.629Z,125
2016-09-28T09:41:12.650Z,130
2016-09-28T09:42:27.610Z,120
2016-09-28T09:43:12.713Z,100
2016-09-28T09:44:27.656Z,95
2016-09-28T09:45:42.607Z,90
2016-09-28T09:46:12.789Z,85
2016-09-28T09:47:12.827Z,80
2016-09-28T09:48:12.837Z,75
2016-09-28T09:49:27.789Z,65
2016-09-28T09:50:12.895Z,65
2016-09-28T09:51:12.918Z,60
2016-09-28T09:53:12.970Z,65
2016-09-28T09:54:13.002Z,65
2016-09-28T09:55:13.325Z,65
2016-09-28T09:56:28.020Z,60
2016-09-28T09:57:13.075Z,60
2016-09-28T09:58:13.103Z,60
2016-09-28T10:00:13.155Z,70
2016-09-28T10:01:13.172Z,70
2016-09-28T10:02:13.203Z,65
2016-09-28T10:03:28.156Z,65
2016-09-28T10:04:13.249Z,65
2016-09-28T10:05:28.206Z,60
2016-09-28T10:06:13.360Z,65
2016-09-28T10:07:13.331Z,70
2016-09-28T10:08:13.365Z,80
2016-09-28T10:09:43.239Z,90
2016-09-28T10:10:13.414Z,95
2016-09-28T10:11:28.362Z,100
2016-09-28T10:12:13.472Z,85
2016-09-28T10:13:28.403Z,70
2016-09-28T10:14:13.534Z,70
2016-09-28T10:15:13.556Z,65
2016-09-28T10:16:28.788Z,65
2016-09-28T10:17:13.588Z,70
2016-09-28T10:18:13.622Z,75
2016-09-28T10:19:28.569Z,75
2016-09-28T10:20:13.669Z,70
2016-09-28T10:21:13.696Z,70
2016-09-28T10:22:13.718Z,75
2016-09-28T10:23:13.759Z,80
2016-09-28T10:24:13.770Z,85
2016-09-28T10:25:13.802Z,90
2016-09-28T10:26:13.824Z,95
2016-09-28T10:27:13.849Z,100
2016-09-28T10:28:13.873Z,95
2016-09-28T10:29:14.357Z,85
2016-09-28T10:30:28.848Z,75
2016-09-28T10:31:13.954Z,75
2016-09-28T10:32:28.909Z,95
2016-09-28T10:33:14.008Z,100
2016-09-28T10:34:14.039Z,90
2016-09-28T10:35:14.078Z,95
2016-09-28T10:36:14.073Z,100
2016-09-28T10:37:14.115Z,100
2016-09-28T10:38:14.143Z,100
2016-09-28T10:39:29.084Z,100
2016-09-28T10:40:29.107Z,90
2016-09-28T10:41:14.205Z,90
2016-09-28T10:42:14.238Z,85
2016-09-28T10:43:14.273Z,75
2016-09-28T10:44:14.299Z,80
2016-09-28T10:46:14.345Z,90
2016-09-28T10:47:14.371Z,95
2016-09-28T10:48:29.319Z,95
2016-09-28T10:49:14.574Z,95
2016-09-28T10:50:14.461Z,95
2016-09-28T10:51:14.477Z,95
2016-09-28T10:52:14.495Z,90
2016-09-28T10:53:29.452Z,90
2016-09-28T10:54:14.555Z,90
2016-09-28T10:55:14.588Z,95
2016-09-28T10:56:14.603Z,105
2016-09-28T10:57:14.629Z,110
2016-09-28T10:58:14.663Z,105
2016-09-28T10:59:29.600Z,110
2016-09-28T11:00:14.711Z,105
2016-09-28T11:01:14.737Z,100
2016-09-28T11:02:14.767Z,105
2016-09-28T11:03:14.789Z,100
2016-09-28T11:04:44.672Z,100
2016-09-28T11:05:14.849Z,105
2016-09-28T11:06:14.853Z,100
2016-09-28T11:08:15.179Z,90
2016-09-28T11:09:14.949Z,95
2016-09-28T11:11:29.920Z,95
2016-09-28T11:12:15.020Z,100
2016-09-28T11:13:15.051Z,105
2016-09-28T11:14:15.079Z,115
2016-09-28T11:15:15.104Z,130
2016-09-28T11:16:15.130Z,150
2016-09-28T11:17:15.151Z,160
2016-09-28T11:18:15.182Z,165
2016-09-28T11:19:30.128Z,170
2016-09-28T11:21:15.254Z,180
2016-09-28T11:22:15.577Z,185
2016-09-28T11:23:30.236Z,190
2016-09-28T11:24:15.345Z,195
2016-09-28T11:25:15.369Z,200
2016-09-28T11:27:30.344Z,200
2016-09-28T11:28:15.443Z,200
2016-09-28T11:29:15.480Z,200
2016-09-28T11:30:15.502Z,200
2016-09-28T11:31:30.456Z,200
2016-09-28T11:32:30.477Z,200
2016-09-28T11:33:15.583Z,200
2016-09-28T11:34:30.827Z,195
2016-09-28T11:35:15.630Z,200
2016-09-28T11:36:45.506Z,195
2016-09-28T11:37:15.688Z,195
2016-09-28T11:38:15.705Z,200
2016-09-28T11:39:30.663Z,210
2016-09-28T11:40:15.761Z,215
2016-09-28T11:41:15.791Z,220
2016-09-28T11:42:15.821Z,225
2016-09-28T11:43:15.841Z,225
2016-09-28T11:44:15.865Z,230
2016-09-28T11:45:15.913Z,230
2016-09-28T11:46:15.921Z,235
2016-09-28T11:47:15.952Z,240
2016-09-28T11:48:15.987Z,230
2016-09-28T11:49:16.012Z,220
2016-09-28T11:50:30.961Z,210
2016-09-28T11:51:30.988Z,200
2016-09-28T11:52:16.245Z,195
2016-09-28T11:53:16.124Z,190
2016-09-28T11:54:16.160Z,190
2016-09-28T11:55:16.477Z,190
2016-09-28T11:56:16.217Z,195
2016-09-28T11:57:16.233Z,180
2016-09-28T11:58:16.254Z,170
2016-09-28T11:59:16.297Z,160
2016-09-28T12:00:16.319Z,150
2016-09-28T12:01:31.457Z,145
2016-09-28T12:02:16.442Z,145
2016-09-28T12:03:16.389Z,145
2016-09-28T12:04:16.416Z,145
2016-09-28T12:05:16.448Z,145
2016-09-28T12:06:16.780Z,145
2016-09-28T12:07:31.435Z,145
2016-09-28T12:08:16.528Z,145
2016-09-28T12:09:16.570Z,150
2016-09-28T12:10:31.505Z,150
2016-09-28T12:11:16.624Z,150
2016-09-28T12:12:31.565Z,145
2016-09-28T12:13:31.593Z,140
2016-09-28T12:14:16.712Z,140
2016-09-28T12:15:16.725Z,140
2016-09-28T12:16:31.669Z,145
2016-09-28T12:17:16.776Z,145
2016-09-28T12:18:16.802Z,145
2016-09-28T12:19:31.761Z,145
2016-09-28T12:20:31.783Z,135
2016-09-28T12:21:16.883Z,135
2016-09-28T12:22:31.836Z,130
2016-09-28T12:23:31.871Z,130
2016-09-28T12:24:16.974Z,130
2016-09-28T12:25:16.998Z,130
2016-09-28T12:26:17.030Z,135
2016-09-28T12:27:17.050Z,135
2016-09-28T12:28:32.004Z,140
2016-09-28T12:29:17.125Z,140
2016-09-28T12:30:17.131Z,145
2016-09-28T12:31:32.089Z,145
2016-09-28T12:32:17.187Z,145
2016-09-28T12:33:17.209Z,145
2016-09-28T12:34:17.244Z,145
2016-09-28T12:35:17.320Z,145
2016-09-28T12:36:32.232Z,145
2016-09-28T12:37:17.319Z,145
2016-09-28T12:38:17.347Z,145
2016-09-28T12:39:32.304Z,145
2016-09-28T12:40:17.417Z,150
2016-09-28T12:41:17.744Z,145
2016-09-28T12:42:17.778Z,145
2016-09-28T12:43:17.489Z,140
2016-09-28T12:44:32.436Z,140
2016-09-28T12:45:17.549Z,135
2016-09-28T12:46:17.570Z,130
2016-09-28T12:47:17.593Z,125
2016-09-28T12:48:17.623Z,120
2016-09-28T12:49:17.654Z,120
2016-09-28T12:50:17.692Z,120
2016-09-28T12:51:32.936Z,115
2016-09-28T12:52:17.730Z,115
2016-09-28T12:53:32.707Z,110
2016-09-28T12:54:32.713Z,110
2016-09-28T12:55:17.818Z,110
2016-09-28T12:56:32.783Z,110
2016-09-28T12:57:17.868Z,115
2016-09-28T12:58:17.901Z,115
2016-09-28T12:59:17.926Z,120
2016-09-28T13:00:17.956Z,115
2016-09-28T13:02:18.020Z,115
2016-09-28T13:03:18.022Z,120
2016-09-28T13:04:18.063Z,120
2016-09-28T13:05:18.089Z,125
2016-09-28T13:06:33.039Z,125
2016-09-28T13:07:18.146Z,130
2016-09-28T13:08:18.168Z,130
2016-09-28T13:09:18.195Z,135
2016-09-28T13:10:18.229Z,135
2016-09-28T13:11:18.247Z,135
2016-09-28T13:12:33.203Z,135
2016-09-28T13:13:18.314Z,140
2016-09-28T13:15:18.356Z,145
2016-09-28T13:16:18.402Z,145
2016-09-28T13:17:18.407Z,145
2016-09-28T13:18:33.368Z,145
2016-09-28T13:19:18.474Z,145
2016-09-28T13:20:18.491Z,145
2016-09-28T13:21:18.519Z,145
2016-09-28T13:22:18.543Z,140
2016-09-28T13:23:33.497Z,140
2016-09-28T13:24:18.603Z,145
2016-09-28T13:25:18.623Z,135
2016-09-28T13:26:33.591Z,130
2016-09-28T13:27:18.688Z,140
2016-09-28T13:28:18.717Z,135
2016-09-28T13:29:18.744Z,140
2016-09-28T13:30:18.769Z,135
2016-09-28T13:31:18.792Z,135
2016-09-28T13:32:18.820Z,135
2016-09-28T13:33:18.850Z,130
2016-09-28T13:34:18.873Z,130
2016-09-28T13:35:19.212Z,125
2016-09-28T13:36:18.947Z,125
2016-09-28T13:37:18.949Z,125
2016-09-28T13:38:18.980Z,120
2016-09-28T13:39:19.015Z,125
2016-09-28T13:40:19.035Z,120
2016-09-28T13:41:33.991Z,120
2016-09-28T13:42:34.017Z,125
2016-09-28T13:43:19.120Z,125
2016-09-28T13:44:34.361Z,130
2016-09-28T13:45:19.187Z,125
2016-09-28T13:46:19.200Z,125
2016-09-28T13:47:19.229Z,125
2016-09-28T13:48:19.262Z,130
2016-09-28T13:49:19.287Z,130
2016-09-28T13:50:34.235Z,130
2016-09-28T13:51:19.336Z,130
2016-09-28T13:52:19.359Z,130
2016-09-28T13:53:19.394Z,130
2016-09-28T13:54:34.343Z,135
2016-09-28T13:55:19.448Z,135
2016-09-28T13:56:19.480Z,130
2016-09-28T13:57:19.501Z,125
2016-09-28T13:58:34.456Z,120
2016-09-28T13:59:34.490Z,115
2016-09-28T14:00:19.584Z,115
2016-09-28T14:01:19.611Z,110
2016-09-28T14:02:19.641Z,110
2016-09-28T14:03:19.656Z,110
2016-09-28T14:05:34.655Z,105
2016-09-28T14:06:19.740Z,105
2016-09-28T14:07:20.015Z,105
2016-09-28T14:08:34.726Z,100
2016-09-28T14:09:19.823Z,100
2016-09-28T14:10:34.771Z,100
2016-09-28T14:11:19.880Z,100
2016-09-28T14:12:19.913Z,100
2016-09-28T14:13:19.934Z,95
2016-09-28T14:15:19.983Z,95
2016-09-28T14:16:34.940Z,95
2016-09-28T14:17:20.045Z,95
2016-09-28T14:18:20.071Z,95
2016-09-28T14:19:35.019Z,95
2016-09-28T14:20:20.114Z,90
2016-09-28T14:21:20.853Z,90
2016-09-28T14:22:20.174Z,85
2016-09-28T14:23:20.201Z,85
2016-09-28T14:24:20.231Z,85
2016-09-28T14:25:20.265Z,80
2016-09-28T14:26:35.208Z,80
2016-09-28T14:27:20.312Z,80
2016-09-28T14:28:20.365Z,80
2016-09-28T14:29:35.290Z,75
2016-09-28T14:30:20.396Z,75
2016-09-28T14:31:20.424Z,75
2016-09-28T14:32:20.440Z,75
2016-09-28T14:33:20.476Z,75
2016-09-28T14:34:20.496Z,75
2016-09-28T14:35:35.448Z,75
2016-09-28T14:36:20.553Z,75
2016-09-28T14:37:20.598Z,75
2016-09-28T14:38:35.534Z,75
2016-09-28T14:39:35.554Z,70
2016-09-28T14:40:20.680Z,70
2016-09-28T14:41:20.688Z,70
2016-09-28T14:42:20.706Z,70
2016-09-28T14:43:20.753Z,70
2016-09-28T14:44:20.771Z,70
2016-09-28T14:45:35.717Z,70
2016-09-28T14:46:20.824Z,65
2016-09-28T14:47:20.851Z,65